Time;durP1;ratioP1;P1;durP2;ratioP2;P2;SDS_P1;SDS_P2;PMS_P1;PMS_P2;Temp;Humidity;BMP_temperature;BMP_pressure;BME280_temperature;BME280_humidity;BME280_pressure;Samples;Min_cycle;Max_cycle;Signal;HPM_P1;HPM_P2
2023/04/28 00:00:51;;;;;;;11.73;10.20;;;19.20;48.40;;;;;;5075154;28;20215;-83
2023/04/28 00:03:18;;;;;;;11.63;10.18;;;19.20;48.50;;;;;;5074093;28;20614;-84
2023/04/28 00:05:45;;;;;;;11.85;10.57;;;19.20;48.50;;;;;;5074317;28;20625;-84
2023/04/28 00:08:12;;;;;;;11.20;9.98;;;19.20;48.50;;;;;;5074434;28;20202;-83
2023/04/28 00:10:41;;;;;;;12.02;10.20;;;19.20;48.60;;;;;;5074773;28;20219;-84
2023/04/28 00:13:08;;;;;;;13.95;11.25;;;19.20;48.50;;;;;;5074578;28;20198;-83
2023/04/28 00:15:35;;;;;;;12.40;10.35;;;19.20;48.50;;;;;;5073909;28;20573;-83
2023/04/28 00:18:03;;;;;;;9.73;8.73;;;19.20;49.10;;;;;;5074064;28;20199;-83
2023/04/28 00:20:30;;;;;;;12.65;10.27;;;19.20;48.50;;;;;;5057379;28;20641;-83
2023/04/28 00:22:58;;;;;;;11.45;9.10;;;19.20;48.60;;;;;;5073036;28;20565;-83
2023/04/28 00:25:25;;;;;;;10.55;9.43;;;19.20;48.60;;;;;;5072781;28;20668;-83
2023/04/28 00:27:54;;;;;;;9.77;8.65;;;19.20;48.50;;;;;;5073353;28;20218;-83
2023/04/28 00:30:21;;;;;;;10.70;9.60;;;19.20;48.60;;;;;;5073990;28;20218;-83
2023/04/28 00:32:48;;;;;;;11.73;9.20;;;19.20;48.70;;;;;;5072966;28;20240;-83
2023/04/28 00:35:16;;;;;;;10.52;9.00;;;19.10;48.50;;;;;;5073103;28;20194;-83
2023/04/28 00:37:43;;;;;;;11.48;9.45;;;19.10;48.60;;;;;;5073278;28;20297;-83
2023/04/28 00:40:11;;;;;;;11.60;10.13;;;19.20;48.70;;;;;;5073902;28;20226;-84
2023/04/28 00:42:38;;;;;;;10.38;9.30;;;19.10;48.70;;;;;;5073572;28;20194;-83
2023/04/28 00:45:09;;;;;;;11.18;9.98;;;19.10;48.60;;;;;;5072585;28;20286;-84
2023/04/28 00:47:36;;;;;;;12.15;8.63;;;19.10;48.60;;;;;;5072458;28;20579;-84
2023/04/28 00:50:05;;;;;;;9.65;8.60;;;19.10;48.60;;;;;;5072553;28;20301;-84
2023/04/28 00:52:32;;;;;;;10.93;9.40;;;19.10;48.60;;;;;;5072715;28;20209;-83
2023/04/28 00:54:59;;;;;;;10.32;9.27;;;19.10;48.60;;;;;;5075540;28;20209;-83
2023/04/28 00:57:26;;;;;;;10.40;8.65;;;19.10;48.70;;;;;;5077049;28;20248;-83
2023/04/28 00:59:53;;;;;;;11.23;9.10;;;19.10;48.70;;;;;;5077256;28;20773;-83
2023/04/28 01:02:22;;;;;;;10.75;9.27;;;19.10;48.80;;;;;;5076811;28;20560;-83
2023/04/28 01:04:50;;;;;;;10.20;8.77;;;19.10;48.70;;;;;;5076993;28;20198;-83
2023/04/28 01:07:17;;;;;;;10.30;9.13;;;19.10;48.70;;;;;;5078166;28;20195;-83
2023/04/28 01:09:46;;;;;;;9.52;8.50;;;19.10;48.70;;;;;;5077063;28;20187;-83
2023/04/28 01:12:15;;;;;;;11.25;8.75;;;19.10;49.30;;;;;;5077261;28;20594;-83
2023/04/28 01:14:44;;;;;;;9.40;8.23;;;19.10;48.70;;;;;;5076259;28;20199;-83
2023/04/28 01:17:11;;;;;;;9.63;7.97;;;19.10;48.80;;;;;;5076242;28;20222;-83
2023/04/28 01:19:40;;;;;;;11.13;9.38;;;19.10;48.80;;;;;;5076863;28;20757;-83
2023/04/28 01:22:09;;;;;;;10.77;8.55;;;19.10;48.80;;;;;;5075876;28;20202;-83
2023/04/28 01:24:37;;;;;;;10.75;8.98;;;19.10;48.70;;;;;;5075949;28;20222;-83
2023/04/28 01:27:07;;;;;;;9.73;8.55;;;19.10;48.80;;;;;;5077378;28;20225;-83
2023/04/28 01:29:34;;;;;;;8.10;7.30;;;19.00;48.80;;;;;;5077006;28;20225;-83
2023/04/28 01:32:02;;;;;;;8.98;8.07;;;19.00;48.80;;;;;;5090273;28;20219;-83
2023/04/28 01:34:29;;;;;;;10.27;8.45;;;19.00;48.80;;;;;;5093836;28;20206;-83
2023/04/28 01:36:56;;;;;;;9.25;8.35;;;19.00;48.80;;;;;;5085594;28;20199;-83
2023/04/28 01:39:24;;;;;;;9.85;8.18;;;19.10;49.00;;;;;;5080458;28;20215;-83
2023/04/28 01:41:52;;;;;;;9.40;7.82;;;19.00;48.90;;;;;;5075999;28;20242;-83
2023/04/28 01:44:20;;;;;;;8.70;7.80;;;19.10;49.00;;;;;;5059365;28;20195;-83
2023/04/28 01:46:48;;;;;;;8.63;7.57;;;19.00;48.90;;;;;;5061688;28;20205;-83
2023/04/28 01:49:15;;;;;;;9.10;8.18;;;19.00;48.90;;;;;;5077782;28;20646;-83
2023/04/28 01:51:42;;;;;;;9.35;7.88;;;19.00;48.90;;;;;;5077672;28;20581;-83
2023/04/28 01:54:10;;;;;;;8.10;7.30;;;19.00;48.90;;;;;;5044119;28;20199;-83
2023/04/28 01:56:36;;;;;;;8.52;7.65;;;19.00;49.00;;;;;;5060482;28;20653;-83
2023/04/28 01:59:05;;;;;;;9.27;8.07;;;19.00;48.90;;;;;;5076148;28;20217;-83
2023/04/28 02:01:34;;;;;;;7.93;7.13;;;19.00;48.90;;;;;;5075852;28;20242;-83
2023/04/28 02:04:01;;;;;;;9.40;8.27;;;19.00;49.00;;;;;;5075924;28;20190;-83
2023/04/28 02:06:31;;;;;;;8.30;7.38;;;19.00;49.00;;;;;;5076483;28;20312;-83
2023/04/28 02:08:58;;;;;;;10.23;8.15;;;18.90;48.90;;;;;;5059144;28;20245;-83
2023/04/28 02:11:26;;;;;;;7.90;7.07;;;19.00;49.00;;;;;;5076647;28;20245;-83
2023/04/28 02:13:56;;;;;;;8.35;7.40;;;19.00;49.00;;;;;;5075500;28;20187;-83
2023/04/28 02:16:25;;;;;;;8.07;6.88;;;19.00;49.10;;;;;;5075252;28;20206;-83
2023/04/28 02:18:52;;;;;;;8.43;7.53;;;19.00;49.10;;;;;;5074744;28;20569;-83
2023/04/28 02:21:19;;;;;;;9.95;8.20;;;19.00;49.10;;;;;;5075924;28;20207;-83
2023/04/28 02:23:46;;;;;;;8.18;7.40;;;18.90;49.00;;;;;;5058285;28;20194;-84
2023/04/28 02:26:14;;;;;;;7.78;6.93;;;19.00;49.10;;;;;;5058414;28;20581;-83
2023/04/28 02:28:41;;;;;;;8.15;7.30;;;19.00;49.10;;;;;;5074927;28;20198;-83
2023/04/28 02:31:09;;;;;;;10.02;7.70;;;19.00;49.20;;;;;;5074705;28;20264;-83
2023/04/28 02:33:38;;;;;;;7.30;6.60;;;19.00;49.10;;;;;;5075405;28;20251;-83
2023/04/28 02:36:06;;;;;;;8.85;6.93;;;19.00;49.20;;;;;;5074810;28;20283;-83
2023/04/28 02:38:34;;;;;;;7.97;7.18;;;19.00;49.10;;;;;;5075117;28;20600;-83
2023/04/28 02:41:01;;;;;;;7.45;6.50;;;19.00;49.20;;;;;;5075076;28;20233;-83
2023/04/28 02:43:28;;;;;;;8.35;7.07;;;18.90;49.10;;;;;;5075314;28;20186;-83
2023/04/28 02:45:55;;;;;;;9.35;6.82;;;18.90;49.20;;;;;;5074591;28;20198;-83
2023/04/28 02:48:22;;;;;;;8.32;6.80;;;18.90;49.10;;;;;;5074415;28;20190;-83
2023/04/28 02:50:51;;;;;;;9.02;7.15;;;19.00;49.20;;;;;;5074474;28;20222;-83
2023/04/28 02:53:19;;;;;;;7.68;6.88;;;19.00;49.20;;;;;;5075196;28;20219;-83
2023/04/28 02:55:47;;;;;;;8.60;6.88;;;18.90;49.80;;;;;;5074673;28;20732;-83
2023/04/28 02:58:16;;;;;;;8.88;6.82;;;18.90;49.20;;;;;;5074213;28;20279;-83
2023/04/28 03:00:43;;;;;;;7.80;6.97;;;18.90;49.30;;;;;;5073894;28;20294;-83
2023/04/28 03:03:10;;;;;;;7.90;6.65;;;18.90;49.30;;;;;;5074150;28;20234;-83
2023/04/28 03:05:37;;;;;;;7.38;6.50;;;18.90;49.30;;;;;;5074635;28;20202;-83
2023/04/28 03:08:06;;;;;;;9.00;6.53;;;18.90;49.40;;;;;;5074535;28;20654;-83
2023/04/28 03:10:34;;;;;;;7.00;6.28;;;18.90;49.40;;;;;;5075233;28;20218;-83
2023/04/28 03:13:02;;;;;;;8.75;7.18;;;18.90;49.40;;;;;;5073928;28;20191;-83
2023/04/28 03:15:30;;;;;;;7.50;6.78;;;18.90;49.40;;;;;;5073608;28;20544;-83
2023/04/28 03:17:57;;;;;;;7.30;6.32;;;18.90;49.30;;;;;;5073329;28;20204;-83
2023/04/28 03:20:25;;;;;;;9.32;7.85;;;18.90;49.40;;;;;;5056999;28;20234;-83
2023/04/28 03:22:52;;;;;;;7.82;6.38;;;18.90;49.40;;;;;;5074787;28;20289;-83
2023/04/28 03:25:20;;;;;;;7.22;6.53;;;18.90;49.40;;;;;;5057296;28;20241;-83
2023/04/28 03:27:51;;;;;;;7.53;6.82;;;19.00;49.40;;;;;;5073860;28;20699;-83
2023/04/28 03:30:18;;;;;;;8.65;7.38;;;19.00;49.70;;;;;;5057503;28;20222;-83
2023/04/28 03:32:46;;;;;;;9.02;6.55;;;19.00;49.60;;;;;;5057946;28;20195;-83
2023/04/28 03:35:15;;;;;;;8.60;7.10;;;19.00;49.60;;;;;;5073934;28;20194;-83
2023/04/28 03:37:43;;;;;;;8.07;7.28;;;19.00;49.50;;;;;;5073997;28;20190;-83
2023/04/28 03:40:11;;;;;;;7.90;6.90;;;19.10;49.50;;;;;;5073637;28;20222;-83
2023/04/28 03:43:06;;;;;;;7.60;6.90;;;19.10;49.50;;;;;;5071731;28;20738;-83
2023/04/28 03:45:37;;;;;;;7.72;7.03;;;19.10;49.50;;;;;;5057863;28;20195;-83
2023/04/28 03:48:05;;;;;;;7.72;6.93;;;19.20;49.60;;;;;;5073568;28;20228;-83
2023/04/28 03:50:33;;;;;;;7.38;6.68;;;19.20;49.50;;;;;;5074169;28;20206;-83
2023/04/28 03:53:01;;;;;;;7.60;6.80;;;19.20;49.40;;;;;;5073470;28;20665;-83
2023/04/28 03:55:29;;;;;;;7.20;6.45;;;19.20;49.40;;;;;;5073472;28;20281;-83
2023/04/28 03:57:56;;;;;;;6.65;6.05;;;19.20;49.40;;;;;;5073364;28;20233;-83
2023/04/28 04:00:24;;;;;;;7.85;6.88;;;19.20;49.30;;;;;;5073375;28;20360;-83
2023/04/28 04:02:55;;;;;;;7.47;6.78;;;19.20;49.30;;;;;;5074327;28;20183;-83
2023/04/28 04:05:22;;;;;;;7.28;6.60;;;19.20;49.20;;;;;;5074477;28;20198;-83
2023/04/28 04:07:49;;;;;;;7.30;6.60;;;19.20;49.20;;;;;;5072998;28;20194;-83
2023/04/28 04:10:17;;;;;;;7.28;6.45;;;19.30;49.20;;;;;;5072898;28;20214;-83
2023/04/28 04:12:45;;;;;;;7.00;6.07;;;19.30;49.20;;;;;;5073085;28;20806;-83
2023/04/28 04:15:12;;;;;;;6.90;6.30;;;19.20;49.10;;;;;;5073136;28;20259;-83
2023/04/28 04:17:42;;;;;;;6.80;6.10;;;19.30;49.20;;;;;;5072777;28;20203;-83
2023/04/28 04:20:11;;;;;;;6.78;6.15;;;19.20;49.10;;;;;;5072998;28;20249;-83
2023/04/28 04:22:38;;;;;;;6.13;5.53;;;19.30;49.20;;;;;;5056452;28;20256;-83
2023/04/28 04:25:06;;;;;;;6.50;5.80;;;19.20;49.20;;;;;;5072867;28;20248;-83
2023/04/28 04:27:35;;;;;;;7.07;6.30;;;19.30;49.20;;;;;;5072483;28;20194;-82
2023/04/28 04:30:01;;;;;;;6.55;5.68;;;19.30;49.30;;;;;;5075144;28;20207;-80
2023/04/28 04:32:29;;;;;;;6.18;5.57;;;19.20;49.20;;;;;;5077151;28;20660;-80
2023/04/28 04:34:57;;;;;;;6.70;6.05;;;19.20;49.30;;;;;;5077055;28;20695;-81
2023/04/28 04:37:25;;;;;;;6.28;5.68;;;19.20;49.40;;;;;;5076968;28;20202;-80
2023/04/28 04:39:58;;;;;;;6.10;5.53;;;19.20;49.40;;;;;;5077706;28;20217;-79
2023/04/28 04:42:25;;;;;;;6.97;5.72;;;19.20;49.50;;;;;;5079963;28;20616;-79
2023/04/28 04:45:16;;;;;;;6.38;5.78;;;19.30;49.70;;;;;;5078738;28;20248;-79
2023/04/28 04:47:43;;;;;;;7.07;5.60;;;19.30;49.70;;;;;;5076818;28;20289;-81
2023/04/28 04:50:13;;;;;;;6.38;5.78;;;19.20;49.60;;;;;;5077787;28;20288;-80
2023/04/28 04:52:40;;;;;;;6.35;5.70;;;19.30;50.20;;;;;;5076432;28;20248;-80
2023/04/28 04:55:09;;;;;;;6.10;5.53;;;19.30;50.50;;;;;;5076221;28;20198;-80
2023/04/28 04:57:38;;;;;;;6.60;5.57;;;19.30;50.90;;;;;;5076352;28;20562;-80
2023/04/28 05:00:11;;;;;;;7.75;5.75;;;19.30;50.80;;;;;;5060792;28;20223;-79
2023/04/28 05:02:39;;;;;;;6.03;5.40;;;19.30;50.70;;;;;;5077435;28;20286;-79
2023/04/28 05:05:07;;;;;;;6.03;5.30;;;19.30;50.70;;;;;;5059867;28;20194;-79
2023/04/28 05:07:36;;;;;;;7.00;5.45;;;19.30;50.70;;;;;;5060757;28;20195;-79
2023/04/28 05:10:03;;;;;;;6.32;5.70;;;19.30;51.10;;;;;;5076381;28;20301;-79
2023/04/28 05:12:31;;;;;;;6.22;5.63;;;19.30;50.80;;;;;;5075917;28;20222;-79
2023/04/28 05:14:58;;;;;;;6.78;5.22;;;19.40;51.10;;;;;;5076202;28;20209;-81
2023/04/28 05:17:25;;;;;;;5.30;4.80;;;19.40;50.90;;;;;;5076092;28;20282;-80
2023/04/28 05:19:52;;;;;;;7.03;5.32;;;19.40;50.70;;;;;;5075814;28;20229;-80
2023/04/28 05:22:19;;;;;;;5.78;5.18;;;19.40;50.80;;;;;;5075937;28;20203;-80
2023/04/28 05:24:48;;;;;;;5.32;4.82;;;19.40;50.70;;;;;;5076503;28;20202;-80
2023/04/28 05:27:15;;;;;;;5.82;4.90;;;19.40;50.70;;;;;;5076296;28;20190;-80
2023/04/28 05:29:43;;;;;;;5.47;4.97;;;19.40;50.70;;;;;;5076222;28;20199;-80
2023/04/28 05:32:11;;;;;;;5.82;5.30;;;19.40;50.60;;;;;;5075743;28;20187;-80
2023/04/28 05:34:39;;;;;;;7.75;5.40;;;19.40;50.60;;;;;;5075813;28;20294;-80
2023/04/28 05:37:06;;;;;;;6.07;5.00;;;19.40;50.60;;;;;;5075951;28;20191;-80
2023/04/28 05:39:35;;;;;;;5.97;4.88;;;19.40;50.50;;;;;;5058889;28;20550;-80
2023/04/28 05:42:06;;;;;;;6.13;4.95;;;19.40;50.60;;;;;;5075196;28;20261;-81
2023/04/28 05:44:35;;;;;;;5.78;5.18;;;19.40;50.50;;;;;;5076671;28;20187;-84
2023/04/28 05:47:02;;;;;;;7.47;5.20;;;19.40;50.60;;;;;;5076975;28;20262;-85
2023/04/28 05:49:30;;;;;;;5.57;5.03;;;19.40;50.40;;;;;;5076393;28;20210;-85
2023/04/28 05:51:57;;;;;;;5.75;5.13;;;19.40;50.30;;;;;;5076135;28;20214;-85
2023/04/28 05:54:24;;;;;;;6.15;5.30;;;19.40;50.30;;;;;;5076035;28;20198;-84
2023/04/28 05:56:54;;;;;;;6.00;5.18;;;19.40;50.30;;;;;;5077012;28;20199;-85
2023/04/28 05:59:23;;;;;;;6.35;5.15;;;19.40;50.40;;;;;;5076041;28;20280;-84
2023/04/28 06:01:50;;;;;;;5.47;4.97;;;19.40;50.30;;;;;;5075861;28;20633;-84
2023/04/28 06:04:17;;;;;;;5.40;4.90;;;19.40;50.40;;;;;;5076161;28;20207;-84
2023/04/28 06:06:44;;;;;;;5.35;4.85;;;19.40;50.30;;;;;;5075261;28;20195;-85
2023/04/28 06:09:11;;;;;;;6.03;5.38;;;19.40;50.10;;;;;;5076239;28;20507;-85
2023/04/28 06:11:41;;;;;;;5.30;4.80;;;19.50;50.00;;;;;;5074952;28;20214;-85
2023/04/28 06:14:08;;;;;;;6.43;4.88;;;19.50;49.80;;;;;;5075344;28;20195;-85
2023/04/28 06:16:36;;;;;;;5.88;5.28;;;19.50;49.80;;;;;;5075321;28;20654;-85
2023/04/28 06:19:04;;;;;;;5.85;5.20;;;19.50;49.80;;;;;;5074756;28;20195;-85
2023/04/28 06:21:31;;;;;;;5.57;5.07;;;19.50;49.80;;;;;;5074710;28;20689;-84
2023/04/28 06:23:58;;;;;;;5.82;5.20;;;19.50;49.80;;;;;;5074770;28;20199;-85
2023/04/28 06:26:26;;;;;;;6.22;5.30;;;19.60;49.90;;;;;;5074701;28;20237;-85
2023/04/28 06:28:52;;;;;;;6.18;5.50;;;19.60;49.90;;;;;;5075081;28;20203;-85
2023/04/28 06:31:20;;;;;;;6.50;5.40;;;19.60;49.80;;;;;;5074437;28;20590;-84
2023/04/28 06:33:49;;;;;;;6.18;4.88;;;19.60;49.80;;;;;;5074631;28;20252;-85
2023/04/28 06:36:16;;;;;;;5.70;5.07;;;19.60;49.80;;;;;;5074352;28;20649;-85
2023/04/28 06:38:44;;;;;;;5.47;4.97;;;19.60;49.70;;;;;;5058200;28;20203;-84
2023/04/28 06:41:11;;;;;;;6.68;5.15;;;19.70;49.70;;;;;;5074569;28;20218;-84
2023/04/28 06:43:39;;;;;;;5.68;4.95;;;19.70;49.70;;;;;;5074091;28;20195;-85
2023/04/28 06:46:14;;;;;;;5.93;5.43;;;19.70;49.60;;;;;;5074135;28;20197;-84
2023/04/28 06:48:42;;;;;;;6.03;5.43;;;19.70;50.30;;;;;;5074191;28;20199;-83
2023/04/28 06:51:10;;;;;;;10.57;5.20;;;19.70;49.70;;;;;;5074424;28;20219;-85
2023/04/28 06:53:38;;;;;;;6.05;5.00;;;19.70;49.60;;;;;;5073722;28;20203;-85
2023/04/28 06:56:08;;;;;;;5.93;4.70;;;19.70;49.70;;;;;;5074756;28;20609;-85
2023/04/28 06:58:35;;;;;;;5.03;4.63;;;19.70;49.70;;;;;;5074854;28;20218;-85
2023/04/28 07:01:04;;;;;;;5.60;5.10;;;19.70;49.50;;;;;;5073750;28;20264;-85
2023/04/28 07:03:31;;;;;;;5.80;5.20;;;19.70;49.50;;;;;;5073852;28;20221;-85
2023/04/28 07:05:59;;;;;;;5.00;4.60;;;19.60;49.50;;;;;;5074154;28;20320;-85
2023/04/28 07:08:29;;;;;;;6.68;4.78;;;19.60;49.50;;;;;;5057281;28;20202;-85
2023/04/28 07:10:56;;;;;;;5.15;4.75;;;19.60;49.70;;;;;;5074257;28;20234;-85
2023/04/28 07:13:24;;;;;;;5.70;5.10;;;19.60;49.70;;;;;;5074383;28;20226;-84
2023/04/28 07:15:51;;;;;;;5.82;5.18;;;19.60;49.70;;;;;;5073559;28;20610;-84
2023/04/28 07:18:18;;;;;;;5.30;4.80;;;19.60;49.90;;;;;;5073463;28;20228;-85
2023/04/28 07:20:46;;;;;;;5.72;5.13;;;19.60;49.80;;;;;;5073410;28;20219;-85
2023/04/28 07:23:39;;;;;;;5.50;5.00;;;19.60;49.80;;;;;;5074097;28;20228;-84
2023/04/28 07:26:07;;;;;;;5.55;5.05;;;19.60;49.80;;;;;;5073530;28;20709;-84
2023/04/28 07:28:34;;;;;;;5.75;5.10;;;19.50;49.70;;;;;;5073502;28;20206;-85
2023/04/28 07:31:01;;;;;;;4.75;4.35;;;19.60;49.90;;;;;;5073694;28;20210;-85
2023/04/28 07:33:29;;;;;;;5.00;4.50;;;19.60;49.90;;;;;;5073319;28;20264;-85
2023/04/28 07:35:56;;;;;;;4.95;4.55;;;19.50;49.80;;;;;;5073704;28;20198;-85
2023/04/28 07:38:23;;;;;;;5.18;4.53;;;19.60;49.90;;;;;;5073276;28;20199;-85
2023/04/28 07:40:52;;;;;;;5.60;5.03;;;19.60;49.90;;;;;;5073676;28;20309;-85
2023/04/28 07:43:19;;;;;;;5.47;4.65;;;19.60;49.90;;;;;;5073770;28;20200;-84
2023/04/28 07:45:47;;;;;;;4.82;4.43;;;19.60;49.90;;;;;;5073544;28;20293;-85
2023/04/28 07:48:15;;;;;;;4.88;4.38;;;19.50;49.80;;;;;;5073528;28;20237;-85
2023/04/28 07:50:42;;;;;;;4.65;4.18;;;19.50;49.80;;;;;;5074535;28;20684;-85
2023/04/28 07:53:10;;;;;;;4.80;4.32;;;19.60;49.90;;;;;;5073822;28;20214;-85
2023/04/28 07:55:37;;;;;;;5.38;4.70;;;19.60;49.90;;;;;;5073131;28;20202;-84
2023/04/28 07:58:06;;;;;;;5.30;4.80;;;19.60;49.90;;;;;;5073185;28;20191;-85
2023/04/28 08:00:32;;;;;;;4.90;4.40;;;19.60;50.00;;;;;;5073324;28;20666;-85
2023/04/28 08:02:59;;;;;;;4.60;4.20;;;19.60;50.00;;;;;;5072800;28;20222;-85
2023/04/28 08:05:27;;;;;;;5.13;4.50;;;19.60;50.10;;;;;;5073256;28;20206;-84
2023/04/28 08:07:54;;;;;;;4.43;4.03;;;19.50;50.10;;;;;;5073547;28;20290;-84
2023/04/28 08:10:21;;;;;;;4.65;4.25;;;19.60;50.10;;;;;;5073578;28;20232;-84
2023/04/28 08:12:48;;;;;;;6.28;4.20;;;19.60;50.10;;;;;;5073456;28;20285;-84
2023/04/28 08:15:17;;;;;;;4.90;4.40;;;19.60;50.20;;;;;;5073557;28;20671;-84
2023/04/28 08:17:44;;;;;;;5.50;4.28;;;19.60;50.20;;;;;;5057038;28;20237;-84
2023/04/28 08:20:14;;;;;;;4.28;3.92;;;19.60;50.30;;;;;;5074116;28;20239;-84
2023/04/28 08:22:41;;;;;;;4.65;4.25;;;19.60;50.50;;;;;;5074189;28;20228;-84
2023/04/28 08:25:09;;;;;;;6.22;4.28;;;19.60;50.70;;;;;;5073032;28;20199;-84
2023/04/28 08:27:37;;;;;;;4.57;4.18;;;19.60;50.80;;;;;;5072800;28;20217;-84
2023/04/28 08:30:05;;;;;;;4.55;4.15;;;19.60;50.40;;;;;;5074345;28;20680;-84
2023/04/28 08:32:33;;;;;;;5.50;4.38;;;19.70;50.30;;;;;;5073033;28;20195;-84
2023/04/28 08:35:02;;;;;;;5.20;4.70;;;19.60;50.50;;;;;;5073996;28;20199;-84
2023/04/28 08:37:29;;;;;;;4.35;3.95;;;19.70;50.50;;;;;;5073320;28;20543;-84
2023/04/28 08:40:01;;;;;;;5.10;4.70;;;19.70;50.30;;;;;;5073047;28;20649;-85
2023/04/28 08:42:29;;;;;;;4.70;4.30;;;19.80;50.60;;;;;;5073217;28;20211;-85
2023/04/28 08:44:58;;;;;;;5.32;4.82;;;19.80;50.50;;;;;;5073805;28;20199;-85
2023/04/28 08:47:28;;;;;;;4.90;4.25;;;19.80;50.40;;;;;;5072917;28;20194;-85
2023/04/28 08:49:56;;;;;;;5.10;4.60;;;19.80;50.40;;;;;;5072792;28;20187;-85
2023/04/28 08:52:23;;;;;;;4.90;4.40;;;19.80;50.00;;;;;;5072551;28;20195;-85
2023/04/28 08:54:50;;;;;;;4.90;4.40;;;19.80;50.10;;;;;;5073424;28;20195;-85
2023/04/28 08:57:17;;;;;;;5.75;4.38;;;19.80;50.20;;;;;;5072476;28;20544;-85
2023/04/28 08:59:44;;;;;;;4.40;3.92;;;19.80;50.50;;;;;;5072200;28;20268;-85
2023/04/28 09:02:11;;;;;;;4.60;4.20;;;19.90;50.70;;;;;;5055859;28;20242;-85
2023/04/28 09:04:38;;;;;;;4.97;4.00;;;19.90;50.80;;;;;;5072662;28;20237;-85
2023/04/28 09:07:12;;;;;;;4.28;3.90;;;19.90;50.80;;;;;;5072594;28;20195;-85
2023/04/28 09:09:39;;;;;;;4.00;3.70;;;19.90;50.70;;;;;;5072410;28;20208;-85
2023/04/28 09:12:06;;;;;;;4.57;4.18;;;19.90;50.70;;;;;;5072341;28;20195;-85
2023/04/28 09:14:34;;;;;;;4.53;4.13;;;19.90;50.30;;;;;;5072203;28;20198;-85
2023/04/28 09:17:09;;;;;;;4.45;4.05;;;19.90;50.60;;;;;;5075637;28;20185;-85
2023/04/28 09:19:37;;;;;;;4.15;3.75;;;19.90;50.50;;;;;;5076178;28;20591;-85
2023/04/28 09:22:04;;;;;;;4.20;3.90;;;20.00;50.20;;;;;;5075914;28;20630;-85
2023/04/28 09:24:34;;;;;;;4.65;4.25;;;20.10;50.30;;;;;;5076152;28;20302;-85
2023/04/28 09:27:02;;;;;;;4.13;3.72;;;20.10;50.30;;;;;;5059100;28;20225;-85
2023/04/28 09:29:29;;;;;;;4.70;4.22;;;20.10;50.30;;;;;;5075723;28;20641;-85
2023/04/28 09:32:13;;;;;;;4.28;3.88;;;20.10;50.50;;;;;;5076152;28;20583;-85
2023/04/28 09:34:44;;;;;;;4.10;3.70;;;20.10;50.30;;;;;;5075511;28;20256;-85
2023/04/28 09:37:15;;;;;;;4.70;4.13;;;20.20;50.40;;;;;;5076387;28;20285;-85
2023/04/28 09:39:45;;;;;;;4.43;4.03;;;20.20;50.40;;;;;;5059576;28;20220;-85
2023/04/28 09:42:29;;;;;;;5.20;4.28;;;20.20;50.40;;;;;;5076062;28;20671;-85
2023/04/28 09:44:56;;;;;;;4.43;3.97;;;20.20;50.30;;;;;;5058936;28;20197;-85
2023/04/28 09:47:24;;;;;;;4.82;4.20;;;20.20;50.30;;;;;;5076135;28;20608;-85
2023/04/28 09:49:55;;;;;;;4.40;4.00;;;20.20;50.00;;;;;;5075704;28;20202;-85
2023/04/28 09:52:23;;;;;;;5.28;3.95;;;20.30;50.30;;;;;;5075155;28;20191;-85
2023/04/28 09:54:52;;;;;;;5.38;4.10;;;20.30;50.00;;;;;;5076123;28;20241;-85
2023/04/28 09:57:20;;;;;;;4.50;4.05;;;20.40;50.00;;;;;;5075232;28;20330;-85
2023/04/28 09:59:47;;;;;;;4.70;4.30;;;20.40;50.00;;;;;;5074591;28;20219;-85
2023/04/28 10:02:15;;;;;;;4.68;3.90;;;20.50;50.00;;;;;;5074779;28;20584;-85
2023/04/28 10:04:45;;;;;;;3.85;3.42;;;20.60;50.00;;;;;;5075195;28;20198;-85
2023/04/28 10:07:13;;;;;;;4.72;3.75;;;20.60;50.00;;;;;;5074960;28;20230;-85
2023/04/28 10:09:42;;;;;;;4.05;3.70;;;20.70;49.90;;;;;;5074829;28;20576;-85
2023/04/28 10:12:12;;;;;;;3.80;3.50;;;20.70;49.90;;;;;;5074895;28;20258;-85
2023/04/28 10:14:39;;;;;;;4.30;3.80;;;20.70;49.90;;;;;;5074683;28;20201;-85
2023/04/28 10:17:06;;;;;;;3.88;3.47;;;20.70;49.90;;;;;;5074726;28;20260;-85
2023/04/28 10:19:33;;;;;;;4.13;3.42;;;20.70;49.50;;;;;;5074700;28;20672;-85
2023/04/28 10:22:06;;;;;;;4.00;3.60;;;20.80;50.00;;;;;;5074992;28;20229;-85
2023/04/28 10:24:34;;;;;;;4.32;3.92;;;20.80;50.00;;;;;;5074650;28;20667;-85
2023/04/28 10:27:08;;;;;;;3.60;3.20;;;20.80;49.50;;;;;;5075294;28;20201;-85
2023/04/28 10:29:36;;;;;;;3.53;3.22;;;20.80;49.70;;;;;;5074835;28;20202;-85
2023/04/28 10:32:17;;;;;;;3.25;2.95;;;20.80;49.60;;;;;;5074575;28;20229;-85
2023/04/28 10:34:44;;;;;;;3.97;3.30;;;20.80;49.30;;;;;;5075262;28;20206;-85
2023/04/28 10:37:13;;;;;;;3.47;3.17;;;20.90;49.10;;;;;;5075835;28;20195;-85
2023/04/28 10:39:40;;;;;;;3.92;3.17;;;20.90;49.10;;;;;;5074921;28;20295;-85
2023/04/28 10:42:41;;;;;;;3.35;3.03;;;20.90;48.90;;;;;;5074860;28;20242;-85
2023/04/28 10:45:10;;;;;;;4.25;3.70;;;21.00;48.70;;;;;;5075584;28;20217;-85
2023/04/28 10:48:05;;;;;;;3.17;2.97;;;21.00;48.60;;;;;;5074640;28;20233;-85
2023/04/28 10:50:32;;;;;;;3.13;2.83;;;21.00;48.60;;;;;;5074291;28;20249;-85
2023/04/28 10:52:59;;;;;;;2.60;2.40;;;21.00;48.60;;;;;;5074381;28;20248;-85
2023/04/28 10:55:29;;;;;;;3.38;3.08;;;21.00;48.60;;;;;;5074077;28;20209;-85
2023/04/28 10:58:31;;;;;;;3.30;3.00;;;21.00;49.10;;;;;;5074222;28;20209;-85
2023/04/28 11:01:28;;;;;;;4.22;2.75;;;20.90;49.40;;;;;;5073733;28;20225;-85
2023/04/28 11:04:01;;;;;;;3.67;2.85;;;20.90;49.10;;;;;;5073729;28;20742;-85
2023/04/28 11:06:30;;;;;;;3.28;2.97;;;21.00;49.00;;;;;;5058061;28;20191;-85
2023/04/28 11:09:02;;;;;;;2.97;2.78;;;21.00;48.60;;;;;;5074792;28;20182;-85
2023/04/28 11:11:29;;;;;;;3.30;3.00;;;21.00;48.40;;;;;;5074791;28;20297;-85
2023/04/28 11:14:26;;;;;;;3.17;2.75;;;21.10;48.40;;;;;;5073646;28;20233;-85
2023/04/28 11:16:58;;;;;;;3.03;2.72;;;21.10;48.70;;;;;;5073759;28;20209;-85
2023/04/28 11:19:27;;;;;;;2.70;2.50;;;21.20;48.10;;;;;;5074470;28;20199;-85
2023/04/28 11:21:55;;;;;;;3.20;2.90;;;21.20;47.80;;;;;;5073442;28;20264;-85
2023/04/28 11:24:25;;;;;;;3.05;2.80;;;21.30;47.70;;;;;;5073513;28;20204;-84
2023/04/28 11:26:53;;;;;;;3.03;2.72;;;21.30;47.60;;;;;;5073349;28;20198;-85
2023/04/28 11:29:30;;;;;;;3.20;2.90;;;21.40;47.60;;;;;;5073117;28;20297;-85
2023/04/28 11:31:59;;;;;;;2.60;2.40;;;21.40;47.50;;;;;;5073017;28;20218;-84
2023/04/28 11:34:26;;;;;;;2.72;2.53;;;21.40;47.60;;;;;;5073165;28;20203;-85
2023/04/28 11:36:53;;;;;;;2.85;2.60;;;21.40;47.40;;;;;;5073250;28;20290;-85
2023/04/28 11:39:27;;;;;;;2.70;2.50;;;21.40;47.50;;;;;;5072301;28;20195;-85
2023/04/28 11:41:54;;;;;;;2.95;2.75;;;21.40;47.50;;;;;;5073027;28;20613;-85
2023/04/28 11:44:22;;;;;;;2.80;2.60;;;21.40;47.30;;;;;;5072931;28;20603;-85
2023/04/28 11:46:50;;;;;;;2.63;2.42;;;21.40;47.30;;;;;;5072910;28;20205;-85
2023/04/28 11:49:19;;;;;;;3.13;2.92;;;21.50;47.30;;;;;;5073157;28;20186;-84
2023/04/28 11:51:48;;;;;;;3.20;2.90;;;21.50;47.20;;;;;;5072574;28;20215;-85
2023/04/28 11:54:20;;;;;;;2.80;2.60;;;21.50;47.00;;;;;;5072681;28;20308;-85
2023/04/28 11:56:48;;;;;;;2.58;2.38;;;21.50;47.20;;;;;;5073404;28;20589;-85
2023/04/28 11:59:15;;;;;;;2.78;2.58;;;21.50;47.10;;;;;;5056345;28;20195;-85
2023/04/28 12:01:46;;;;;;;2.67;2.47;;;21.50;47.20;;;;;;5073744;28;20214;-85
2023/04/28 12:04:14;;;;;;;2.72;2.53;;;21.50;47.30;;;;;;5072582;28;20234;-85
2023/04/28 12:06:42;;;;;;;2.75;2.55;;;21.50;47.00;;;;;;5072876;28;20194;-85
2023/04/28 12:09:17;;;;;;;2.67;2.47;;;21.50;47.00;;;;;;5072952;28;20198;-85
2023/04/28 12:11:55;;;;;;;2.60;2.40;;;21.50;47.00;;;;;;5072448;28;20309;-85
2023/04/28 12:14:25;;;;;;;2.80;2.60;;;21.50;47.00;;;;;;5072552;28;20244;-85
2023/04/28 12:16:52;;;;;;;2.80;2.60;;;21.50;47.00;;;;;;5072775;28;20194;-85
2023/04/28 12:19:20;;;;;;;3.00;2.70;;;21.50;47.00;;;;;;5072603;28;20252;-85
2023/04/28 12:22:02;;;;;;;2.42;2.22;;;21.50;47.00;;;;;;5073268;28;20230;-85
2023/04/28 12:24:29;;;;;;;2.92;2.72;;;21.50;47.00;;;;;;5073366;28;20741;-85
2023/04/28 12:27:16;;;;;;;2.70;2.50;;;21.50;47.00;;;;;;5074100;28;20186;-85
2023/04/28 12:29:44;;;;;;;2.58;2.05;;;21.50;47.10;;;;;;5072684;28;20183;-85
2023/04/28 12:32:12;;;;;;;2.70;2.50;;;21.60;47.00;;;;;;5072752;28;20664;-85
2023/04/28 12:34:40;;;;;;;2.45;2.25;;;21.60;46.90;;;;;;5072248;28;20195;-85
2023/04/28 12:37:09;;;;;;;2.58;2.38;;;21.60;46.90;;;;;;5072756;28;20227;-85
2023/04/28 12:39:36;;;;;;;2.83;2.60;;;21.60;46.90;;;;;;5072634;28;20325;-85
2023/04/28 12:42:03;;;;;;;2.95;2.30;;;21.60;47.00;;;;;;5073109;28;20703;-85
2023/04/28 12:44:35;;;;;;;2.60;2.40;;;21.60;47.10;;;;;;5072737;28;20264;-84
2023/04/28 12:47:03;;;;;;;3.00;2.80;;;21.60;47.00;;;;;;5072515;28;20194;-84
2023/04/28 12:49:31;;;;;;;2.65;2.45;;;21.60;47.10;;;;;;5072719;28;20198;-84
2023/04/28 12:51:58;;;;;;;2.22;2.10;;;21.50;47.00;;;;;;5076134;28;20317;-84
2023/04/28 12:54:26;;;;;;;2.45;2.25;;;21.60;47.10;;;;;;5078153;28;20221;-84